createdAt,value
2018-09-22T00:01:03.145Z,95903.00
2018-09-22T00:03:33.019Z,95899.00
2018-09-22T00:06:03.095Z,95911.00
2018-09-22T00:08:33.161Z,95905.00
2018-09-22T00:11:03.273Z,95932.00
2018-09-22T00:13:33.022Z,95939.00
2018-09-22T00:16:03.131Z,95924.00
2018-09-22T00:18:33.039Z,95933.00
2018-09-22T00:21:03.127Z,95934.00
2018-09-22T00:23:33.132Z,95939.00
2018-09-22T00:26:03.236Z,95937.00
2018-09-22T00:28:33.206Z,95949.00
2018-09-22T00:31:03.335Z,95950.00
2018-09-22T00:33:33.227Z,95942.00
2018-09-22T00:36:03.240Z,95934.00
2018-09-22T00:38:33.321Z,95941.00
2018-09-22T00:41:03.276Z,95942.00
2018-09-22T00:43:33.248Z,95934.00
2018-09-22T00:46:03.398Z,95926.00
2018-09-22T00:48:33.440Z,95940.00
2018-09-22T00:51:03.374Z,95948.00
2018-09-22T00:53:33.506Z,95939.00
2018-09-22T00:56:03.505Z,95937.00
2018-09-22T00:58:33.449Z,95956.00
2018-09-22T01:01:03.469Z,95942.00
2018-09-22T01:03:33.463Z,95949.00
2018-09-22T01:06:03.580Z,95965.00
2018-09-22T01:08:33.523Z,95958.00
2018-09-22T01:11:03.539Z,95959.00
2018-09-22T01:13:33.626Z,95954.00
2018-09-22T01:16:03.684Z,95954.00
2018-09-22T01:18:33.551Z,95962.00
2018-09-22T01:21:03.622Z,95972.00
2018-09-22T01:23:33.520Z,95962.00
2018-09-22T01:26:03.608Z,95962.00
2018-09-22T01:28:33.641Z,95977.00
2018-09-22T01:31:03.917Z,95981.00
2018-09-22T01:33:33.638Z,95982.00
2018-09-22T01:36:03.667Z,95991.00
2018-09-22T01:38:33.703Z,95982.00
2018-09-22T01:41:03.685Z,95994.00
2018-09-22T01:43:33.679Z,95996.00
2018-09-22T01:46:03.774Z,95993.00
2018-09-22T01:48:33.794Z,95993.00
2018-09-22T01:51:03.843Z,96002.00
2018-09-22T01:53:33.756Z,96004.00
2018-09-22T01:56:03.794Z,95993.00
2018-09-22T01:58:33.866Z,95997.00
2018-09-22T02:01:03.998Z,96008.00
2018-09-22T02:03:33.940Z,96006.00
2018-09-22T02:06:04.031Z,96006.00
2018-09-22T02:08:33.916Z,96005.00
2018-09-22T02:11:03.930Z,96011.00
2018-09-22T02:13:34.043Z,96017.00
2018-09-22T02:16:04.017Z,96021.00
2018-09-22T02:18:34.062Z,96023.00
2018-09-22T02:21:04.059Z,96032.00
2018-09-22T02:23:34.128Z,96022.00
2018-09-22T02:26:04.100Z,96014.00
2018-09-22T02:31:12.219Z,96032.00
2018-09-22T02:33:41.379Z,96032.00
2018-09-22T02:36:10.558Z,96020.00
2018-09-22T02:38:39.694Z,96026.00
2018-09-22T02:41:08.836Z,96028.00
2018-09-22T02:43:38.114Z,96048.00
2018-09-22T02:46:07.819Z,96027.00
2018-09-22T02:48:37.264Z,96026.00
2018-09-22T02:51:06.804Z,96035.00
2018-09-22T02:53:35.926Z,96041.00
2018-09-22T02:56:05.168Z,96041.00
2018-09-22T02:58:34.429Z,96047.00
2018-09-22T03:01:04.395Z,96040.00
2018-09-22T03:03:34.460Z,96049.00
2018-09-22T03:06:04.456Z,96050.00
2018-09-22T03:08:34.555Z,96042.00
2018-09-22T03:11:04.520Z,96035.00
2018-09-22T03:13:34.526Z,96016.00
2018-09-22T03:16:04.392Z,96028.00
2018-09-22T03:18:34.473Z,96027.00
2018-09-22T03:21:04.458Z,96024.00
2018-09-22T03:23:34.617Z,96032.00
2018-09-22T03:26:04.489Z,96023.00
2018-09-22T03:28:34.587Z,96019.00
2018-09-22T03:31:04.624Z,96022.00
2018-09-22T03:33:34.554Z,96045.00
2018-09-22T03:36:04.717Z,96043.00
2018-09-22T03:38:34.660Z,96054.00
2018-09-22T03:41:04.766Z,96054.00
2018-09-22T03:43:34.770Z,96066.00
2018-09-22T03:46:04.800Z,96058.00
2018-09-22T03:48:34.699Z,96061.00
2018-09-22T03:51:04.782Z,96055.00
2018-09-22T03:53:34.814Z,96045.00
2018-09-22T03:56:04.886Z,96070.00
2018-09-22T03:58:34.834Z,96076.00
2018-09-22T04:01:04.853Z,96068.00
2018-09-22T04:03:34.943Z,96062.00
2018-09-22T04:06:04.981Z,96060.00
2018-09-22T04:08:35.018Z,96035.00
2018-09-22T04:11:05.026Z,96034.00
2018-09-22T04:13:34.924Z,96036.00
2018-09-22T04:16:04.994Z,96021.00
2018-09-22T04:18:35.072Z,96024.00
2018-09-22T04:21:05.172Z,96029.00
2018-09-22T04:23:35.111Z,96030.00
2018-09-22T04:26:05.334Z,96043.00
2018-09-22T04:28:35.176Z,96034.00
2018-09-22T04:31:05.301Z,96052.00
2018-09-22T04:33:35.175Z,96047.00
2018-09-22T04:36:05.149Z,96038.00
2018-09-22T04:38:35.254Z,96055.00
2018-09-22T04:41:05.712Z,96050.00
2018-09-22T04:43:35.367Z,96053.00
2018-09-22T04:46:05.300Z,96064.00
2018-09-22T04:48:35.182Z,96071.00
2018-09-22T04:51:05.458Z,96069.00
2018-09-22T04:53:35.314Z,96068.00
2018-09-22T04:56:05.237Z,96065.00
2018-09-22T04:58:34.447Z,96065.00
2018-09-22T05:01:03.570Z,96071.00
2018-09-22T05:03:32.799Z,96074.00
2018-09-22T05:06:01.916Z,96078.00
2018-09-22T05:08:31.112Z,96089.00
2018-09-22T05:11:00.268Z,96089.00
2018-09-22T05:13:29.482Z,96084.00
2018-09-22T05:15:58.687Z,96068.00
2018-09-22T05:18:28.299Z,96075.00
2018-09-22T05:20:57.683Z,96088.00
2018-09-22T05:23:27.395Z,96078.00
2018-09-22T05:25:56.584Z,96091.00
2018-09-22T05:28:25.880Z,96084.00
2018-09-22T05:30:55.086Z,96076.00
2018-09-22T05:33:24.359Z,96068.00
2018-09-22T05:35:53.564Z,96077.00
2018-09-22T05:38:22.818Z,96070.00
2018-09-22T05:40:51.875Z,96074.00
2018-09-22T05:43:21.092Z,96076.00
2018-09-22T05:45:50.612Z,96064.00
2018-09-22T05:48:19.816Z,96065.00
2018-09-22T05:50:49.028Z,96072.00
2018-09-22T05:53:18.364Z,96077.00
2018-09-22T05:55:47.578Z,96085.00
2018-09-22T05:58:16.909Z,96079.00
2018-09-22T06:00:45.973Z,96082.00
2018-09-22T06:03:15.309Z,96083.00
2018-09-22T06:05:44.481Z,96074.00
2018-09-22T06:08:13.662Z,96074.00
2018-09-22T06:10:42.862Z,96083.00
2018-09-22T06:13:12.010Z,96079.00
2018-09-22T06:15:41.147Z,96074.00
2018-09-22T06:18:10.265Z,96078.00
2018-09-22T06:20:39.411Z,96077.00
2018-09-22T06:23:08.706Z,96084.00
2018-09-22T06:25:37.826Z,96089.00
2018-09-22T06:28:06.966Z,96090.00
2018-09-22T06:30:36.398Z,96086.00
2018-09-22T06:33:06.671Z,96088.00
2018-09-22T06:35:36.594Z,96096.00
2018-09-22T06:38:06.766Z,96093.00
2018-09-22T06:40:36.775Z,96084.00
2018-09-22T06:43:06.922Z,96100.00
2018-09-22T06:45:36.815Z,96094.00
2018-09-22T06:48:06.852Z,96089.00
2018-09-22T06:50:36.838Z,96096.00
2018-09-22T06:53:06.858Z,96101.00
2018-09-22T06:55:37.063Z,96112.00
2018-09-22T06:58:07.009Z,96106.00
2018-09-22T07:00:37.107Z,96106.00
2018-09-22T07:03:07.027Z,96105.00
2018-09-22T07:05:37.112Z,96106.00
2018-09-22T07:08:07.108Z,96123.00
2018-09-22T07:10:37.136Z,96125.00
2018-09-22T07:13:07.017Z,96126.00
2018-09-22T07:15:37.251Z,96128.00
2018-09-22T07:18:07.274Z,96123.00
2018-09-22T07:20:37.174Z,96118.00
2018-09-22T07:23:12.177Z,96115.00
2018-09-22T07:25:41.383Z,96118.00
2018-09-22T07:28:10.627Z,96118.00
2018-09-22T07:30:39.953Z,96113.00
2018-09-22T07:33:09.254Z,96116.00
2018-09-22T07:35:38.519Z,96128.00
2018-09-22T07:38:07.969Z,96133.00
2018-09-22T07:40:37.332Z,96135.00
2018-09-22T07:43:07.366Z,96127.00
2018-09-22T07:45:37.440Z,96122.00
2018-09-22T07:48:07.386Z,96117.00
2018-09-22T07:50:37.391Z,96131.00
2018-09-22T07:53:07.441Z,96135.00
2018-09-22T07:55:37.639Z,96137.00
2018-09-22T07:58:07.512Z,96141.00
2018-09-22T08:00:37.579Z,96141.00
2018-09-22T08:03:07.782Z,96139.00
2018-09-22T08:05:37.714Z,96143.00
2018-09-22T08:08:07.720Z,96153.00
2018-09-22T08:10:37.668Z,96146.00
2018-09-22T08:13:07.735Z,96153.00
2018-09-22T08:15:37.674Z,96159.00
2018-09-22T08:18:07.732Z,96141.00
2018-09-22T08:20:37.718Z,96139.00
2018-09-22T08:23:07.678Z,96136.00
2018-09-22T08:25:37.887Z,96145.00
2018-09-22T08:28:07.801Z,96162.00
2018-09-22T08:30:37.819Z,96145.00
2018-09-22T08:33:07.861Z,96138.00
2018-09-22T08:35:37.915Z,96143.00
2018-09-22T08:38:08.074Z,96149.00
2018-09-22T08:40:38.058Z,96144.00
2018-09-22T08:43:08.071Z,96152.00
2018-09-22T08:45:38.113Z,96146.00
2018-09-22T08:48:08.055Z,96128.00
2018-09-22T08:50:38.082Z,96144.00
2018-09-22T08:53:08.142Z,96140.00
2018-09-22T08:55:38.096Z,96135.00
2018-09-22T08:58:08.187Z,96138.00
2018-09-22T09:00:38.171Z,96138.00
2018-09-22T09:03:08.241Z,96136.00
2018-09-22T09:05:38.200Z,96141.00
2018-09-22T09:08:08.227Z,96129.00
2018-09-22T09:10:38.247Z,96130.00
2018-09-22T09:13:08.769Z,96130.00
2018-09-22T09:15:38.365Z,96117.00
2018-09-22T09:18:08.527Z,96121.00
2018-09-22T09:20:38.637Z,96113.00
2018-09-22T09:23:08.614Z,96115.00
2018-09-22T09:25:38.654Z,96108.00
2018-09-22T09:28:08.504Z,96120.00
2018-09-22T09:30:38.674Z,96112.00
2018-09-22T09:33:08.764Z,96108.00
2018-09-22T09:35:38.702Z,96106.00
2018-09-22T09:38:08.622Z,96100.00
2018-09-22T09:40:38.841Z,96104.00
2018-09-22T09:43:08.711Z,96115.00
2018-09-22T09:45:38.900Z,96108.00
2018-09-22T09:48:08.745Z,96111.00
2018-09-22T09:50:39.098Z,96101.00
2018-09-22T09:53:08.935Z,96111.00
2018-09-22T09:55:38.992Z,96116.00
2018-09-22T09:58:09.015Z,96112.00
2018-09-22T10:00:45.818Z,96112.00
2018-09-22T10:03:16.745Z,96108.00
2018-09-22T10:05:46.375Z,96096.00
2018-09-22T10:08:15.984Z,96099.00
2018-09-22T10:10:45.868Z,96101.00
2018-09-22T10:13:15.174Z,96105.00
2018-09-22T10:15:44.512Z,96099.00
2018-09-22T10:18:13.658Z,96099.00
2018-09-22T10:20:45.806Z,96096.00
2018-09-22T10:23:15.016Z,96089.00
2018-09-22T10:25:44.128Z,96094.00
2018-09-22T10:28:13.388Z,96095.00
2018-09-22T10:30:42.534Z,96094.00
2018-09-22T10:33:11.627Z,96085.00
2018-09-22T10:35:41.275Z,96097.00
2018-09-22T10:38:10.511Z,96091.00
2018-09-22T10:40:39.830Z,96094.00
2018-09-22T10:43:09.450Z,96090.00
2018-09-22T10:45:39.289Z,96094.00
2018-09-22T10:48:09.448Z,96069.00
2018-09-22T10:50:39.428Z,96069.00
2018-09-22T10:53:09.529Z,96075.00
2018-09-22T10:55:39.361Z,96070.00
2018-09-22T10:58:09.593Z,96065.00
2018-09-22T11:00:39.499Z,96059.00
2018-09-22T11:03:09.532Z,96060.00
2018-09-22T11:05:39.442Z,96052.00
2018-09-22T11:08:09.560Z,96043.00
2018-09-22T11:10:39.743Z,96045.00
2018-09-22T11:13:09.752Z,96042.00
2018-09-22T11:15:39.649Z,96038.00
2018-09-22T11:18:09.750Z,96041.00
2018-09-22T11:20:39.766Z,96035.00
2018-09-22T11:23:10.119Z,96016.00
2018-09-22T11:25:39.774Z,96021.00
2018-09-22T11:28:09.850Z,96018.00
2018-09-22T11:30:39.953Z,96025.00
2018-09-22T11:33:09.834Z,96018.00
2018-09-22T11:35:39.874Z,96010.00
2018-09-22T11:38:10.073Z,96001.00
2018-09-22T11:40:40.050Z,95989.00
2018-09-22T11:43:09.950Z,96001.00
2018-09-22T11:45:40.079Z,96007.00
2018-09-22T11:48:10.045Z,96010.00
2018-09-22T11:50:40.015Z,96004.00
2018-09-22T11:53:10.739Z,96001.00
2018-09-22T11:55:40.075Z,95996.00
2018-09-22T11:58:09.990Z,95997.00
2018-09-22T12:00:40.097Z,96000.00
2018-09-22T12:08:08.576Z,95997.00
2018-09-22T12:10:37.827Z,95997.00
2018-09-22T12:13:07.058Z,96006.00
2018-09-22T12:15:36.427Z,96005.00
2018-09-22T12:18:05.691Z,95993.00
2018-09-22T12:20:35.125Z,95976.00
2018-09-22T12:23:04.305Z,95986.00
2018-09-22T12:25:33.890Z,95983.00
2018-09-22T12:28:03.167Z,95981.00
2018-09-22T12:30:32.420Z,95973.00
2018-09-22T12:33:01.614Z,95959.00
2018-09-22T12:35:30.958Z,95955.00
2018-09-22T12:38:00.259Z,95944.00
2018-09-22T12:40:29.500Z,95936.00
2018-09-22T12:42:58.947Z,95930.00
2018-09-22T12:45:28.362Z,95926.00
2018-09-22T12:47:57.666Z,95928.00
2018-09-22T12:50:27.433Z,95925.00
2018-09-22T12:52:56.709Z,95917.00
2018-09-22T12:55:25.983Z,95916.00
2018-09-22T12:57:55.214Z,95915.00
2018-09-22T13:00:24.314Z,95896.00
2018-09-22T13:02:53.465Z,95895.00
2018-09-22T13:05:22.858Z,95903.00
2018-09-22T13:07:52.148Z,95904.00
2018-09-22T13:10:21.379Z,95909.00
2018-09-22T13:12:50.628Z,95898.00
2018-09-22T13:15:19.794Z,95902.00
2018-09-22T13:17:48.936Z,95900.00
2018-09-22T13:20:18.093Z,95898.00
2018-09-22T13:22:47.403Z,95886.00
2018-09-22T13:25:16.879Z,95887.00
2018-09-22T13:27:46.503Z,95890.00
2018-09-22T13:30:15.714Z,95892.00
2018-09-22T13:32:44.930Z,95892.00
2018-09-22T13:35:15.138Z,95902.00
2018-09-22T13:37:44.511Z,95902.00
2018-09-22T13:40:13.680Z,95897.00
2018-09-22T13:42:42.880Z,95907.00
2018-09-22T13:45:12.083Z,95900.00
2018-09-22T13:47:41.320Z,95895.00
2018-09-22T13:50:11.065Z,95907.00
2018-09-22T13:52:41.055Z,95908.00
2018-09-22T13:55:11.123Z,95899.00
2018-09-22T13:57:41.487Z,95900.00
2018-09-22T14:00:11.344Z,95885.00
2018-09-22T14:02:41.349Z,95880.00
2018-09-22T14:05:11.335Z,95877.00
2018-09-22T14:07:41.251Z,95866.00
2018-09-22T14:10:11.375Z,95864.00
2018-09-22T14:12:41.632Z,95852.00
2018-09-22T14:15:11.315Z,95855.00
2018-09-22T14:17:41.371Z,95850.00
2018-09-22T14:20:11.456Z,95833.00
2018-09-22T14:22:41.566Z,95844.00
2018-09-22T14:25:11.696Z,95834.00
2018-09-22T14:27:41.530Z,95817.00
2018-09-22T14:30:11.555Z,95813.00
2018-09-22T14:32:41.683Z,95810.00
2018-09-22T14:35:11.709Z,95809.00
2018-09-22T14:37:41.654Z,95808.00
2018-09-22T14:40:11.587Z,95797.00
2018-09-22T14:42:41.748Z,95799.00
2018-09-22T14:45:11.643Z,95796.00
2018-09-22T14:47:41.618Z,95809.00
2018-09-22T14:50:11.749Z,95807.00
2018-09-22T14:52:41.785Z,95807.00
2018-09-22T14:55:11.676Z,95803.00
2018-09-22T14:57:41.820Z,95804.00
2018-09-22T15:00:11.814Z,95800.00
2018-09-22T15:02:41.793Z,95798.00
2018-09-22T15:05:11.981Z,95800.00
2018-09-22T15:07:41.898Z,95803.00
2018-09-22T15:10:11.839Z,95811.00
2018-09-22T15:12:41.892Z,95822.00
2018-09-22T15:15:11.915Z,95832.00
2018-09-22T15:17:41.988Z,95838.00
2018-09-22T15:20:12.116Z,95832.00
2018-09-22T15:22:42.015Z,95827.00
2018-09-22T15:25:12.394Z,95828.00
2018-09-22T15:27:42.140Z,95833.00
2018-09-22T15:30:12.344Z,95836.00
2018-09-22T15:32:42.255Z,95837.00
2018-09-22T15:35:12.994Z,95833.00
2018-09-22T15:37:42.486Z,95818.00
2018-09-22T15:40:12.391Z,95824.00
2018-09-22T15:42:42.199Z,95824.00
2018-09-22T15:45:12.318Z,95809.00
2018-09-22T15:47:42.210Z,95815.00
2018-09-22T15:50:12.358Z,95807.00
2018-09-22T15:52:42.377Z,95801.00
2018-09-22T15:55:12.754Z,95802.00
2018-09-22T15:57:42.447Z,95785.00
2018-09-22T16:00:12.744Z,95776.00
2018-09-22T16:02:42.559Z,95790.00
2018-09-22T16:05:12.631Z,95785.00
2018-09-22T16:07:42.654Z,95776.00
2018-09-22T16:10:12.551Z,95775.00
2018-09-22T16:12:42.985Z,95778.00
2018-09-22T16:15:12.561Z,95780.00
2018-09-22T16:17:42.908Z,95773.00
2018-09-22T16:20:12.729Z,95783.00
2018-09-22T16:22:42.768Z,95782.00
2018-09-22T16:25:12.862Z,95788.00
2018-09-22T16:27:42.844Z,95785.00
2018-09-22T16:30:12.975Z,95779.00
2018-09-22T16:32:42.922Z,95783.00
2018-09-22T16:35:13.040Z,95772.00
2018-09-22T16:37:43.231Z,95773.00
2018-09-22T16:40:13.031Z,95774.00
2018-09-22T16:42:43.020Z,95773.00
2018-09-22T16:45:13.042Z,95765.00
2018-09-22T16:47:43.224Z,95772.00
2018-09-22T16:50:13.194Z,95775.00
2018-09-22T16:52:43.193Z,95776.00
2018-09-22T16:55:13.197Z,95781.00
2018-09-22T16:57:43.192Z,95786.00
2018-09-22T17:00:13.195Z,95776.00
2018-09-22T17:02:43.131Z,95768.00
2018-09-22T17:05:13.533Z,95754.00
2018-09-22T17:07:43.292Z,95729.00
2018-09-22T17:10:13.287Z,95728.00
2018-09-22T17:12:43.342Z,95734.00
2018-09-22T17:15:13.686Z,95739.00
2018-09-22T17:17:43.438Z,95753.00
2018-09-22T17:20:13.486Z,95764.00
2018-09-22T17:22:43.291Z,95771.00
2018-09-22T17:25:13.358Z,95770.00
2018-09-22T17:27:43.432Z,95764.00
2018-09-22T17:30:13.644Z,95751.00
2018-09-22T17:32:43.619Z,95745.00
2018-09-22T17:35:13.457Z,95763.00
2018-09-22T17:37:43.637Z,95772.00
2018-09-22T17:40:13.872Z,95770.00
2018-09-22T17:42:43.728Z,95752.00
2018-09-22T17:45:13.758Z,95751.00
2018-09-22T17:47:43.801Z,95760.00
2018-09-22T17:50:13.627Z,95751.00
2018-09-22T17:52:43.774Z,95760.00
2018-09-22T17:55:13.768Z,95771.00
2018-09-22T17:57:43.792Z,95776.00
2018-09-22T18:00:14.792Z,95775.00
2018-09-22T18:02:43.948Z,95775.00
2018-09-22T18:05:13.792Z,95768.00
2018-09-22T18:07:42.974Z,95772.00
2018-09-22T18:10:12.045Z,95779.00
2018-09-22T18:12:41.295Z,95778.00
2018-09-22T18:15:10.514Z,95772.00
2018-09-22T18:17:39.841Z,95780.00
2018-09-22T18:20:09.016Z,95794.00
2018-09-22T18:22:38.252Z,95791.00
2018-09-22T18:25:07.323Z,95807.00
2018-09-22T18:27:36.501Z,95797.00
2018-09-22T18:30:06.026Z,95809.00
2018-09-22T18:32:35.303Z,95812.00
2018-09-22T18:35:04.435Z,95809.00
2018-09-22T18:37:33.676Z,95819.00
2018-09-22T18:40:02.878Z,95820.00
2018-09-22T18:42:32.133Z,95819.00
2018-09-22T18:45:01.368Z,95812.00
2018-09-22T18:47:30.607Z,95813.00
2018-09-22T18:49:59.790Z,95817.00
2018-09-22T18:52:29.101Z,95822.00
2018-09-22T18:54:58.323Z,95832.00
2018-09-22T18:57:27.649Z,95839.00
2018-09-22T18:59:56.920Z,95832.00
2018-09-22T19:02:26.080Z,95838.00
2018-09-22T19:04:55.253Z,95833.00
2018-09-22T19:07:24.524Z,95839.00
2018-09-22T19:09:53.814Z,95835.00
2018-09-22T19:12:23.239Z,95827.00
2018-09-22T19:14:59.668Z,95830.00
2018-09-22T19:17:35.757Z,95819.00
2018-09-22T19:20:11.267Z,95817.00
2018-09-22T19:22:48.500Z,95813.00
2018-09-22T19:25:20.082Z,95837.00
2018-09-22T19:27:56.133Z,95821.00
2018-09-22T19:30:29.411Z,95827.00
2018-09-22T19:33:02.122Z,95826.00
2018-09-22T19:35:35.013Z,95827.00
2018-09-22T19:38:11.939Z,95824.00
2018-09-22T19:40:45.144Z,95823.00
2018-09-22T19:43:20.298Z,95817.00
2018-09-22T19:45:51.106Z,95825.00
2018-09-22T19:48:54.573Z,95801.00
2018-09-22T19:51:26.043Z,95816.00
2018-09-22T19:53:56.418Z,95821.00
2018-09-22T19:56:25.771Z,95811.00
2018-09-22T19:58:55.127Z,95822.00
2018-09-22T20:01:24.292Z,95815.00
2018-09-22T20:03:53.514Z,95825.00
2018-09-22T20:06:22.659Z,95823.00
2018-09-22T20:08:51.915Z,95819.00
2018-09-22T20:11:21.126Z,95803.00
2018-09-22T20:13:50.369Z,95801.00
2018-09-22T20:16:19.637Z,95793.00
2018-09-22T20:18:48.897Z,95790.00
2018-09-22T20:21:17.954Z,95791.00
2018-09-22T20:23:47.367Z,95787.00
2018-09-22T20:26:16.454Z,95793.00
2018-09-22T20:28:45.710Z,95776.00
2018-09-22T20:31:15.689Z,95781.00
2018-09-22T20:33:45.767Z,95792.00
2018-09-22T20:36:15.867Z,95800.00
2018-09-22T20:38:45.820Z,95789.00
2018-09-22T20:41:15.748Z,95781.00
2018-09-22T20:43:45.936Z,95796.00
2018-09-22T20:46:16.033Z,95805.00
2018-09-22T20:48:46.200Z,95789.00
2018-09-22T20:51:15.862Z,95788.00
2018-09-22T20:53:46.004Z,95805.00
2018-09-22T20:56:15.951Z,95825.00
2018-09-22T20:58:45.998Z,95825.00
2018-09-22T21:01:16.032Z,95818.00
2018-09-22T21:03:45.965Z,95819.00
2018-09-22T21:06:15.991Z,95810.00
2018-09-22T21:08:46.045Z,95804.00
2018-09-22T21:11:16.317Z,95799.00
2018-09-22T21:13:46.267Z,95796.00
2018-09-22T21:16:16.446Z,95787.00
2018-09-22T21:18:46.312Z,95776.00
2018-09-22T21:21:16.205Z,95778.00
2018-09-22T21:23:46.356Z,95790.00
2018-09-22T21:26:16.421Z,95788.00
2018-09-22T21:28:46.381Z,95786.00
2018-09-22T21:31:17.211Z,95775.00
2018-09-22T21:33:47.485Z,95781.00
2018-09-22T21:36:16.751Z,95799.00
2018-09-22T21:38:46.545Z,95781.00
2018-09-22T21:41:16.517Z,95788.00
2018-09-22T21:43:46.654Z,95782.00
2018-09-22T21:46:17.959Z,95793.00
2018-09-22T21:48:47.187Z,95802.00
2018-09-22T21:51:16.830Z,95798.00
2018-09-22T21:53:46.923Z,95802.00
2018-09-22T21:56:16.677Z,95807.00
2018-09-22T21:58:46.864Z,95811.00
2018-09-22T22:06:13.871Z,95814.00
2018-09-22T22:08:43.078Z,95814.00
2018-09-22T22:11:12.265Z,95817.00
2018-09-22T22:13:41.458Z,95809.00
2018-09-22T22:16:10.861Z,95818.00
2018-09-22T22:18:40.007Z,95824.00
2018-09-22T22:21:09.194Z,95820.00
2018-09-22T22:23:38.592Z,95804.00
2018-09-22T22:26:07.939Z,95801.00
2018-09-22T22:28:37.108Z,95803.00
2018-09-22T22:31:06.202Z,95806.00
2018-09-22T22:33:35.488Z,95804.00
2018-09-22T22:36:04.723Z,95814.00
2018-09-22T22:38:33.820Z,95830.00
2018-09-22T22:41:03.007Z,95830.00
2018-09-22T22:43:32.244Z,95832.00
2018-09-22T22:46:01.482Z,95821.00
2018-09-22T22:48:30.638Z,95821.00
2018-09-22T22:50:59.826Z,95816.00
2018-09-22T22:53:29.030Z,95817.00
2018-09-22T22:55:58.346Z,95816.00
2018-09-22T22:58:28.645Z,95826.00
2018-09-22T23:00:57.932Z,95830.00
2018-09-22T23:03:27.394Z,95827.00
2018-09-22T23:05:56.597Z,95819.00
2018-09-22T23:08:25.806Z,95825.00
2018-09-22T23:10:55.140Z,95815.00
2018-09-22T23:13:24.351Z,95826.00
2018-09-22T23:15:53.572Z,95831.00
2018-09-22T23:18:22.711Z,95823.00
2018-09-22T23:20:52.018Z,95825.00
2018-09-22T23:23:21.203Z,95836.00
2018-09-22T23:25:50.389Z,95834.00
2018-09-22T23:28:19.586Z,95825.00
2018-09-22T23:30:48.835Z,95843.00
2018-09-22T23:33:18.054Z,95844.00
2018-09-22T23:35:47.996Z,95843.00
2018-09-22T23:38:18.029Z,95828.00
2018-09-22T23:40:48.166Z,95835.00
2018-09-22T23:43:18.171Z,95829.00
2018-09-22T23:45:48.153Z,95836.00
2018-09-22T23:48:18.151Z,95826.00
2018-09-22T23:50:48.162Z,95834.00
2018-09-22T23:53:18.219Z,95834.00
2018-09-22T23:55:48.263Z,95836.00
2018-09-22T23:58:18.372Z,95831.00
